sensor_id;sensor_type;location;lat;lon;timestamp;P1;durP1;ratioP1;P2;durP2;ratioP2
17422;SDS011;8829;47.932;7.810;2023-03-03T00:01:00;40.63;;;21.67;;
17422;SDS011;8829;47.932;7.810;2023-03-03T00:03:27;41.70;;;22.97;;
17422;SDS011;8829;47.932;7.810;2023-03-03T00:05:54;37.90;;;21.57;;
17422;SDS011;8829;47.932;7.810;2023-03-03T00:08:20;39.53;;;21.33;;
17422;SDS011;8829;47.932;7.810;2023-03-03T00:10:49;36.00;;;22.17;;
17422;SDS011;8829;47.932;7.810;2023-03-03T00:13:17;45.83;;;27.97;;
17422;SDS011;8829;47.932;7.810;2023-03-03T00:15:45;42.13;;;21.83;;
17422;SDS011;8829;47.932;7.810;2023-03-03T00:18:16;47.40;;;23.13;;
17422;SDS011;8829;47.932;7.810;2023-03-03T00:20:48;39.33;;;21.70;;
17422;SDS011;8829;47.932;7.810;2023-03-03T00:26:03;37.67;;;20.97;;
17422;SDS011;8829;47.932;7.810;2023-03-03T00:28:42;40.40;;;22.03;;
17422;SDS011;8829;47.932;7.810;2023-03-03T00:31:11;38.97;;;20.80;;
17422;SDS011;8829;47.932;7.810;2023-03-03T00:33:44;40.37;;;22.70;;
17422;SDS011;8829;47.932;7.810;2023-03-03T00:36:25;43.40;;;22.17;;
17422;SDS011;8829;47.932;7.810;2023-03-03T00:39:12;45.00;;;22.13;;
17422;SDS011;8829;47.932;7.810;2023-03-03T00:41:46;33.40;;;21.10;;
17422;SDS011;8829;47.932;7.810;2023-03-03T00:47:12;38.60;;;21.20;;
17422;SDS011;8829;47.932;7.810;2023-03-03T00:49:52;40.70;;;22.83;;
17422;SDS011;8829;47.932;7.810;2023-03-03T00:52:20;46.57;;;22.37;;
17422;SDS011;8829;47.932;7.810;2023-03-03T00:54:47;38.57;;;21.30;;
17422;SDS011;8829;47.932;7.810;2023-03-03T00:57:15;39.77;;;21.20;;
17422;SDS011;8829;47.932;7.810;2023-03-03T00:59:42;39.63;;;20.97;;
17422;SDS011;8829;47.932;7.810;2023-03-03T01:02:08;41.50;;;23.00;;
17422;SDS011;8829;47.932;7.810;2023-03-03T01:04:35;46.57;;;22.53;;
17422;SDS011;8829;47.932;7.810;2023-03-03T01:07:02;46.97;;;23.00;;
17422;SDS011;8829;47.932;7.810;2023-03-03T01:09:28;41.87;;;22.73;;
17422;SDS011;8829;47.932;7.810;2023-03-03T01:11:55;46.50;;;21.73;;
17422;SDS011;8829;47.932;7.810;2023-03-03T01:14:23;39.57;;;22.17;;
17422;SDS011;8829;47.932;7.810;2023-03-03T01:16:50;39.07;;;22.37;;
17422;SDS011;8829;47.932;7.810;2023-03-03T01:19:17;41.73;;;22.23;;
17422;SDS011;8829;47.932;7.810;2023-03-03T01:21:43;39.87;;;21.83;;
17422;SDS011;8829;47.932;7.810;2023-03-03T01:24:10;41.13;;;23.10;;
17422;SDS011;8829;47.932;7.810;2023-03-03T01:26:36;42.27;;;22.07;;
17422;SDS011;8829;47.932;7.810;2023-03-03T01:29:03;38.93;;;20.63;;
17422;SDS011;8829;47.932;7.810;2023-03-03T01:31:31;39.07;;;21.90;;
17422;SDS011;8829;47.932;7.810;2023-03-03T01:33:58;44.03;;;22.00;;
17422;SDS011;8829;47.932;7.810;2023-03-03T01:36:26;41.27;;;22.57;;
17422;SDS011;8829;47.932;7.810;2023-03-03T01:38:53;40.07;;;22.53;;
17422;SDS011;8829;47.932;7.810;2023-03-03T01:41:20;38.90;;;21.17;;
17422;SDS011;8829;47.932;7.810;2023-03-03T01:43:47;38.30;;;22.20;;
17422;SDS011;8829;47.932;7.810;2023-03-03T01:46:39;40.63;;;21.13;;
17422;SDS011;8829;47.932;7.810;2023-03-03T01:49:12;40.27;;;22.30;;
17422;SDS011;8829;47.932;7.810;2023-03-03T01:51:42;40.03;;;21.83;;
17422;SDS011;8829;47.932;7.810;2023-03-03T01:54:13;38.27;;;21.63;;
17422;SDS011;8829;47.932;7.810;2023-03-03T01:56:44;41.27;;;22.77;;
17422;SDS011;8829;47.932;7.810;2023-03-03T01:59:12;42.03;;;22.57;;
17422;SDS011;8829;47.932;7.810;2023-03-03T02:01:43;39.70;;;21.70;;
17422;SDS011;8829;47.932;7.810;2023-03-03T02:04:12;37.50;;;22.53;;
17422;SDS011;8829;47.932;7.810;2023-03-03T02:06:39;38.70;;;21.50;;
17422;SDS011;8829;47.932;7.810;2023-03-03T02:09:10;40.33;;;21.63;;
17422;SDS011;8829;47.932;7.810;2023-03-03T02:11:44;37.57;;;20.30;;
17422;SDS011;8829;47.932;7.810;2023-03-03T02:14:14;38.40;;;21.93;;
17422;SDS011;8829;47.932;7.810;2023-03-03T02:16:40;40.77;;;22.87;;
17422;SDS011;8829;47.932;7.810;2023-03-03T02:19:11;42.07;;;21.53;;
17422;SDS011;8829;47.932;7.810;2023-03-03T02:21:44;43.07;;;21.40;;
17422;SDS011;8829;47.932;7.810;2023-03-03T02:24:12;37.60;;;20.83;;
17422;SDS011;8829;47.932;7.810;2023-03-03T02:26:48;43.67;;;21.93;;
17422;SDS011;8829;47.932;7.810;2023-03-03T02:29:15;40.53;;;20.90;;
17422;SDS011;8829;47.932;7.810;2023-03-03T02:31:41;43.70;;;21.40;;
17422;SDS011;8829;47.932;7.810;2023-03-03T02:34:08;41.33;;;22.60;;
17422;SDS011;8829;47.932;7.810;2023-03-03T02:36:35;37.73;;;21.37;;
17422;SDS011;8829;47.932;7.810;2023-03-03T02:39:06;42.80;;;23.50;;
17422;SDS011;8829;47.932;7.810;2023-03-03T02:41:37;39.70;;;20.73;;
17422;SDS011;8829;47.932;7.810;2023-03-03T02:44:09;36.87;;;21.50;;
17422;SDS011;8829;47.932;7.810;2023-03-03T02:46:37;32.73;;;19.20;;
17422;SDS011;8829;47.932;7.810;2023-03-03T02:49:05;39.47;;;20.93;;
17422;SDS011;8829;47.932;7.810;2023-03-03T02:51:33;39.77;;;21.47;;
17422;SDS011;8829;47.932;7.810;2023-03-03T02:54:00;41.43;;;21.67;;
17422;SDS011;8829;47.932;7.810;2023-03-03T02:56:27;36.10;;;20.10;;
17422;SDS011;8829;47.932;7.810;2023-03-03T02:58:54;39.33;;;21.27;;
17422;SDS011;8829;47.932;7.810;2023-03-03T03:01:22;35.60;;;20.50;;
17422;SDS011;8829;47.932;7.810;2023-03-03T03:03:48;39.83;;;21.37;;
17422;SDS011;8829;47.932;7.810;2023-03-03T03:06:15;40.53;;;21.50;;
17422;SDS011;8829;47.932;7.810;2023-03-03T03:08:42;38.30;;;21.00;;
17422;SDS011;8829;47.932;7.810;2023-03-03T03:11:08;37.77;;;20.23;;
17422;SDS011;8829;47.932;7.810;2023-03-03T03:13:35;36.17;;;20.93;;
17422;SDS011;8829;47.932;7.810;2023-03-03T03:16:01;38.27;;;21.63;;
17422;SDS011;8829;47.932;7.810;2023-03-03T03:18:30;42.87;;;21.83;;
17422;SDS011;8829;47.932;7.810;2023-03-03T03:20:56;37.97;;;21.53;;
17422;SDS011;8829;47.932;7.810;2023-03-03T03:23:30;39.67;;;21.07;;
17422;SDS011;8829;47.932;7.810;2023-03-03T03:25:56;36.57;;;21.00;;
17422;SDS011;8829;47.932;7.810;2023-03-03T03:28:23;36.97;;;19.53;;
17422;SDS011;8829;47.932;7.810;2023-03-03T03:30:50;39.27;;;20.43;;
17422;SDS011;8829;47.932;7.810;2023-03-03T03:33:16;37.20;;;19.43;;
17422;SDS011;8829;47.932;7.810;2023-03-03T03:35:45;36.03;;;19.53;;
17422;SDS011;8829;47.932;7.810;2023-03-03T03:38:12;38.23;;;20.23;;
17422;SDS011;8829;47.932;7.810;2023-03-03T03:40:39;39.00;;;21.50;;
17422;SDS011;8829;47.932;7.810;2023-03-03T03:43:06;35.67;;;19.23;;
17422;SDS011;8829;47.932;7.810;2023-03-03T03:45:33;40.23;;;21.13;;
17422;SDS011;8829;47.932;7.810;2023-03-03T03:48:00;42.57;;;20.53;;
17422;SDS011;8829;47.932;7.810;2023-03-03T03:50:26;33.23;;;20.00;;
17422;SDS011;8829;47.932;7.810;2023-03-03T03:52:54;41.33;;;21.07;;
17422;SDS011;8829;47.932;7.810;2023-03-03T03:55:21;33.17;;;20.57;;
17422;SDS011;8829;47.932;7.810;2023-03-03T03:57:48;32.37;;;19.73;;
17422;SDS011;8829;47.932;7.810;2023-03-03T04:00:14;38.23;;;21.17;;
17422;SDS011;8829;47.932;7.810;2023-03-03T04:02:41;39.20;;;20.70;;
17422;SDS011;8829;47.932;7.810;2023-03-03T04:05:08;36.73;;;20.70;;
17422;SDS011;8829;47.932;7.810;2023-03-03T04:07:35;38.40;;;21.70;;
17422;SDS011;8829;47.932;7.810;2023-03-03T04:10:03;38.40;;;21.30;;
17422;SDS011;8829;47.932;7.810;2023-03-03T04:12:30;40.73;;;20.47;;
17422;SDS011;8829;47.932;7.810;2023-03-03T04:15:02;37.97;;;20.27;;
17422;SDS011;8829;47.932;7.810;2023-03-03T04:17:29;41.77;;;21.00;;
17422;SDS011;8829;47.932;7.810;2023-03-03T04:19:56;34.40;;;19.37;;
17422;SDS011;8829;47.932;7.810;2023-03-03T04:22:23;38.97;;;21.37;;
17422;SDS011;8829;47.932;7.810;2023-03-03T04:24:50;39.87;;;21.23;;
17422;SDS011;8829;47.932;7.810;2023-03-03T04:27:18;37.40;;;20.87;;
17422;SDS011;8829;47.932;7.810;2023-03-03T04:29:44;44.53;;;21.60;;
17422;SDS011;8829;47.932;7.810;2023-03-03T04:32:11;39.27;;;21.10;;
17422;SDS011;8829;47.932;7.810;2023-03-03T04:34:38;39.23;;;21.17;;
17422;SDS011;8829;47.932;7.810;2023-03-03T04:37:04;40.10;;;22.20;;
17422;SDS011;8829;47.932;7.810;2023-03-03T04:39:31;39.93;;;22.37;;
17422;SDS011;8829;47.932;7.810;2023-03-03T04:41:58;38.83;;;21.30;;
17422;SDS011;8829;47.932;7.810;2023-03-03T04:44:26;39.13;;;21.87;;
17422;SDS011;8829;47.932;7.810;2023-03-03T04:46:52;43.07;;;23.23;;
17422;SDS011;8829;47.932;7.810;2023-03-03T04:49:19;42.17;;;21.93;;
17422;SDS011;8829;47.932;7.810;2023-03-03T04:51:46;36.13;;;20.53;;
17422;SDS011;8829;47.932;7.810;2023-03-03T04:54:12;39.03;;;23.30;;
17422;SDS011;8829;47.932;7.810;2023-03-03T04:56:39;44.93;;;24.47;;
17422;SDS011;8829;47.932;7.810;2023-03-03T04:59:06;42.37;;;21.97;;
17422;SDS011;8829;47.932;7.810;2023-03-03T05:01:34;41.57;;;22.30;;
17422;SDS011;8829;47.932;7.810;2023-03-03T05:04:00;43.77;;;23.63;;
17422;SDS011;8829;47.932;7.810;2023-03-03T05:06:27;41.63;;;22.77;;
17422;SDS011;8829;47.932;7.810;2023-03-03T05:08:53;43.93;;;22.90;;
17422;SDS011;8829;47.932;7.810;2023-03-03T05:11:20;36.73;;;21.97;;
17422;SDS011;8829;47.932;7.810;2023-03-03T05:13:47;41.73;;;21.80;;
17422;SDS011;8829;47.932;7.810;2023-03-03T05:16:13;39.17;;;22.10;;
17422;SDS011;8829;47.932;7.810;2023-03-03T05:18:42;41.13;;;21.90;;
17422;SDS011;8829;47.932;7.810;2023-03-03T05:21:09;39.80;;;21.67;;
17422;SDS011;8829;47.932;7.810;2023-03-03T05:23:36;41.53;;;21.63;;
17422;SDS011;8829;47.932;7.810;2023-03-03T05:26:03;41.20;;;22.70;;
17422;SDS011;8829;47.932;7.810;2023-03-03T05:28:30;41.10;;;22.33;;
17422;SDS011;8829;47.932;7.810;2023-03-03T05:30:57;46.07;;;24.73;;
17422;SDS011;8829;47.932;7.810;2023-03-03T05:33:24;41.87;;;23.73;;
17422;SDS011;8829;47.932;7.810;2023-03-03T05:35:53;45.47;;;23.60;;
17422;SDS011;8829;47.932;7.810;2023-03-03T05:38:20;41.87;;;22.70;;
17422;SDS011;8829;47.932;7.810;2023-03-03T05:40:47;42.90;;;23.07;;
17422;SDS011;8829;47.932;7.810;2023-03-03T05:43:14;42.43;;;22.83;;
17422;SDS011;8829;47.932;7.810;2023-03-03T05:45:41;44.17;;;24.43;;
17422;SDS011;8829;47.932;7.810;2023-03-03T05:48:07;42.73;;;24.93;;
17422;SDS011;8829;47.932;7.810;2023-03-03T05:50:35;47.67;;;24.83;;
17422;SDS011;8829;47.932;7.810;2023-03-03T05:53:04;38.93;;;23.77;;
17422;SDS011;8829;47.932;7.810;2023-03-03T05:55:30;44.30;;;23.23;;
17422;SDS011;8829;47.932;7.810;2023-03-03T05:57:57;45.77;;;23.63;;
17422;SDS011;8829;47.932;7.810;2023-03-03T06:00:24;47.50;;;25.03;;
17422;SDS011;8829;47.932;7.810;2023-03-03T06:02:50;39.83;;;22.30;;
17422;SDS011;8829;47.932;7.810;2023-03-03T06:05:17;44.87;;;22.90;;
17422;SDS011;8829;47.932;7.810;2023-03-03T06:07:44;44.73;;;23.90;;
17422;SDS011;8829;47.932;7.810;2023-03-03T06:10:12;43.17;;;22.93;;
17422;SDS011;8829;47.932;7.810;2023-03-03T06:12:39;44.43;;;23.63;;
17422;SDS011;8829;47.932;7.810;2023-03-03T06:15:06;36.43;;;22.43;;
17422;SDS011;8829;47.932;7.810;2023-03-03T06:17:34;39.60;;;23.43;;
17422;SDS011;8829;47.932;7.810;2023-03-03T06:20:01;42.93;;;23.10;;
17422;SDS011;8829;47.932;7.810;2023-03-03T06:22:28;50.57;;;24.63;;
17422;SDS011;8829;47.932;7.810;2023-03-03T06:24:55;43.57;;;23.70;;
17422;SDS011;8829;47.932;7.810;2023-03-03T06:27:23;41.90;;;22.70;;
17422;SDS011;8829;47.932;7.810;2023-03-03T06:29:49;39.40;;;22.37;;
17422;SDS011;8829;47.932;7.810;2023-03-03T06:32:16;40.70;;;22.27;;
17422;SDS011;8829;47.932;7.810;2023-03-03T06:34:42;39.83;;;21.80;;
17422;SDS011;8829;47.932;7.810;2023-03-03T06:37:09;41.93;;;23.13;;
17422;SDS011;8829;47.932;7.810;2023-03-03T06:39:36;43.17;;;22.40;;
17422;SDS011;8829;47.932;7.810;2023-03-03T06:42:02;40.37;;;22.43;;
17422;SDS011;8829;47.932;7.810;2023-03-03T06:44:31;43.23;;;22.83;;
17422;SDS011;8829;47.932;7.810;2023-03-03T06:46:58;39.03;;;22.67;;
17422;SDS011;8829;47.932;7.810;2023-03-03T06:49:25;42.40;;;23.17;;
17422;SDS011;8829;47.932;7.810;2023-03-03T06:51:51;38.37;;;22.60;;
17422;SDS011;8829;47.932;7.810;2023-03-03T06:54:19;40.93;;;23.23;;
17422;SDS011;8829;47.932;7.810;2023-03-03T06:56:48;42.00;;;22.37;;
17422;SDS011;8829;47.932;7.810;2023-03-03T06:59:19;39.63;;;22.60;;
17422;SDS011;8829;47.932;7.810;2023-03-03T07:01:48;38.87;;;21.57;;
17422;SDS011;8829;47.932;7.810;2023-03-03T07:04:21;40.23;;;22.73;;
17422;SDS011;8829;47.932;7.810;2023-03-03T07:06:54;42.00;;;23.70;;
17422;SDS011;8829;47.932;7.810;2023-03-03T07:09:23;40.33;;;23.43;;
17422;SDS011;8829;47.932;7.810;2023-03-03T07:11:50;40.60;;;23.43;;
17422;SDS011;8829;47.932;7.810;2023-03-03T07:14:18;39.33;;;21.67;;
17422;SDS011;8829;47.932;7.810;2023-03-03T07:16:45;40.50;;;20.87;;
17422;SDS011;8829;47.932;7.810;2023-03-03T07:19:19;41.67;;;22.00;;
17422;SDS011;8829;47.932;7.810;2023-03-03T07:21:50;38.50;;;22.60;;
17422;SDS011;8829;47.932;7.810;2023-03-03T07:24:24;34.20;;;21.57;;
17422;SDS011;8829;47.932;7.810;2023-03-03T07:26:53;40.90;;;22.47;;
17422;SDS011;8829;47.932;7.810;2023-03-03T07:29:25;39.60;;;22.30;;
17422;SDS011;8829;47.932;7.810;2023-03-03T07:31:54;40.93;;;21.20;;
17422;SDS011;8829;47.932;7.810;2023-03-03T07:34:22;43.37;;;24.07;;
17422;SDS011;8829;47.932;7.810;2023-03-03T07:36:52;41.80;;;23.20;;
17422;SDS011;8829;47.932;7.810;2023-03-03T07:39:24;42.23;;;23.57;;
17422;SDS011;8829;47.932;7.810;2023-03-03T07:41:57;39.40;;;22.70;;
17422;SDS011;8829;47.932;7.810;2023-03-03T07:44:34;36.63;;;22.27;;
17422;SDS011;8829;47.932;7.810;2023-03-03T07:47:11;36.83;;;21.63;;
17422;SDS011;8829;47.932;7.810;2023-03-03T07:49:44;37.97;;;22.40;;
17422;SDS011;8829;47.932;7.810;2023-03-03T07:52:17;39.10;;;24.13;;
17422;SDS011;8829;47.932;7.810;2023-03-03T07:54:55;37.30;;;23.53;;
17422;SDS011;8829;47.932;7.810;2023-03-03T07:57:24;37.13;;;22.53;;
17422;SDS011;8829;47.932;7.810;2023-03-03T07:59:52;37.57;;;23.27;;
17422;SDS011;8829;47.932;7.810;2023-03-03T08:02:34;40.83;;;23.50;;
17422;SDS011;8829;47.932;7.810;2023-03-03T08:07:54;42.50;;;23.53;;
17422;SDS011;8829;47.932;7.810;2023-03-03T08:10:28;42.77;;;23.60;;
17422;SDS011;8829;47.932;7.810;2023-03-03T08:13:01;43.60;;;24.70;;
17422;SDS011;8829;47.932;7.810;2023-03-03T08:15:37;55.73;;;31.27;;
17422;SDS011;8829;47.932;7.810;2023-03-03T08:18:10;49.90;;;28.87;;
17422;SDS011;8829;47.932;7.810;2023-03-03T08:20:48;59.47;;;30.40;;
17422;SDS011;8829;47.932;7.810;2023-03-03T08:23:16;56.90;;;32.13;;
17422;SDS011;8829;47.932;7.810;2023-03-03T08:25:44;54.13;;;30.70;;
17422;SDS011;8829;47.932;7.810;2023-03-03T08:28:11;47.63;;;27.37;;
17422;SDS011;8829;47.932;7.810;2023-03-03T08:30:39;46.10;;;27.03;;
17422;SDS011;8829;47.932;7.810;2023-03-03T08:33:06;42.57;;;25.50;;
17422;SDS011;8829;47.932;7.810;2023-03-03T08:35:34;39.87;;;25.17;;
17422;SDS011;8829;47.932;7.810;2023-03-03T08:38:00;43.00;;;26.03;;
17422;SDS011;8829;47.932;7.810;2023-03-03T08:40:27;41.53;;;24.73;;
17422;SDS011;8829;47.932;7.810;2023-03-03T08:42:54;41.93;;;24.13;;
17422;SDS011;8829;47.932;7.810;2023-03-03T08:45:22;44.13;;;24.20;;
17422;SDS011;8829;47.932;7.810;2023-03-03T08:47:49;43.47;;;25.03;;
17422;SDS011;8829;47.932;7.810;2023-03-03T08:50:16;46.00;;;25.50;;
17422;SDS011;8829;47.932;7.810;2023-03-03T08:52:45;46.57;;;27.27;;
17422;SDS011;8829;47.932;7.810;2023-03-03T08:55:12;43.50;;;26.30;;
17422;SDS011;8829;47.932;7.810;2023-03-03T08:57:38;48.57;;;27.67;;
17422;SDS011;8829;47.932;7.810;2023-03-03T09:00:06;40.03;;;24.10;;
17422;SDS011;8829;47.932;7.810;2023-03-03T09:02:34;44.53;;;25.00;;
17422;SDS011;8829;47.932;7.810;2023-03-03T09:05:02;40.33;;;23.13;;
17422;SDS011;8829;47.932;7.810;2023-03-03T09:07:28;43.37;;;24.07;;
17422;SDS011;8829;47.932;7.810;2023-03-03T09:09:57;44.35;;;26.83;;
17422;SDS011;8829;47.932;7.810;2023-03-03T09:12:25;40.03;;;23.40;;
17422;SDS011;8829;47.932;7.810;2023-03-03T09:14:55;43.23;;;23.27;;
17422;SDS011;8829;47.932;7.810;2023-03-03T09:17:25;40.53;;;22.53;;
17422;SDS011;8829;47.932;7.810;2023-03-03T09:19:56;43.10;;;23.17;;
17422;SDS011;8829;47.932;7.810;2023-03-03T09:22:24;38.23;;;22.03;;
17422;SDS011;8829;47.932;7.810;2023-03-03T09:24:53;44.93;;;24.13;;
17422;SDS011;8829;47.932;7.810;2023-03-03T09:27:24;42.67;;;23.20;;
17422;SDS011;8829;47.932;7.810;2023-03-03T09:29:54;38.90;;;24.17;;
17422;SDS011;8829;47.932;7.810;2023-03-03T09:32:29;42.90;;;23.60;;
17422;SDS011;8829;47.932;7.810;2023-03-03T09:34:59;42.37;;;23.77;;
17422;SDS011;8829;47.932;7.810;2023-03-03T09:37:27;44.93;;;24.27;;
17422;SDS011;8829;47.932;7.810;2023-03-03T09:39:59;41.97;;;23.40;;
17422;SDS011;8829;47.932;7.810;2023-03-03T09:42:36;42.20;;;24.43;;
17422;SDS011;8829;47.932;7.810;2023-03-03T09:45:23;43.47;;;27.83;;
17422;SDS011;8829;47.932;7.810;2023-03-03T09:48:02;43.80;;;24.93;;
17422;SDS011;8829;47.932;7.810;2023-03-03T09:50:52;43.03;;;23.27;;
17422;SDS011;8829;47.932;7.810;2023-03-03T09:53:37;43.37;;;23.87;;
17422;SDS011;8829;47.932;7.810;2023-03-03T09:56:18;43.53;;;23.93;;
17422;SDS011;8829;47.932;7.810;2023-03-03T09:59:01;38.87;;;22.90;;
17422;SDS011;8829;47.932;7.810;2023-03-03T10:01:42;40.63;;;24.30;;
17422;SDS011;8829;47.932;7.810;2023-03-03T10:04:31;42.07;;;24.73;;
17422;SDS011;8829;47.932;7.810;2023-03-03T10:07:13;41.37;;;23.90;;
17422;SDS011;8829;47.932;7.810;2023-03-03T10:09:59;39.75;;;23.75;;
17422;SDS011;8829;47.932;7.810;2023-03-03T10:12:38;43.60;;;24.57;;
17422;SDS011;8829;47.932;7.810;2023-03-03T10:18:01;40.50;;;22.23;;
17422;SDS011;8829;47.932;7.810;2023-03-03T10:20:44;36.20;;;21.43;;
17422;SDS011;8829;47.932;7.810;2023-03-03T10:23:20;37.23;;;22.30;;
17422;SDS011;8829;47.932;7.810;2023-03-03T10:25:58;39.13;;;22.87;;
17422;SDS011;8829;47.932;7.810;2023-03-03T10:28:44;43.30;;;23.47;;
17422;SDS011;8829;47.932;7.810;2023-03-03T10:31:32;43.33;;;23.33;;
17422;SDS011;8829;47.932;7.810;2023-03-03T10:34:20;43.03;;;26.17;;
17422;SDS011;8829;47.932;7.810;2023-03-03T10:37:01;41.67;;;23.67;;
17422;SDS011;8829;47.932;7.810;2023-03-03T10:39:35;43.67;;;24.40;;
17422;SDS011;8829;47.932;7.810;2023-03-03T10:42:15;37.87;;;24.17;;
17422;SDS011;8829;47.932;7.810;2023-03-03T10:45:06;44.13;;;25.50;;
17422;SDS011;8829;47.932;7.810;2023-03-03T10:47:51;44.17;;;24.73;;
17422;SDS011;8829;47.932;7.810;2023-03-03T10:50:30;44.73;;;24.67;;
17422;SDS011;8829;47.932;7.810;2023-03-03T10:53:06;40.23;;;24.77;;
17422;SDS011;8829;47.932;7.810;2023-03-03T10:55:46;38.43;;;22.67;;
17422;SDS011;8829;47.932;7.810;2023-03-03T10:58:23;35.13;;;20.03;;
17422;SDS011;8829;47.932;7.810;2023-03-03T11:01:07;41.70;;;24.10;;
17422;SDS011;8829;47.932;7.810;2023-03-03T11:03:49;44.83;;;25.63;;
17422;SDS011;8829;47.932;7.810;2023-03-03T11:06:40;41.97;;;24.33;;
17422;SDS011;8829;47.932;7.810;2023-03-03T11:09:17;40.30;;;24.60;;
17422;SDS011;8829;47.932;7.810;2023-03-03T11:11:57;40.83;;;24.83;;
17422;SDS011;8829;47.932;7.810;2023-03-03T11:14:29;41.73;;;25.47;;
17422;SDS011;8829;47.932;7.810;2023-03-03T11:17:04;50.20;;;27.63;;
17422;SDS011;8829;47.932;7.810;2023-03-03T11:19:51;47.23;;;26.13;;
17422;SDS011;8829;47.932;7.810;2023-03-03T11:22:31;41.67;;;25.93;;
17422;SDS011;8829;47.932;7.810;2023-03-03T11:25:13;45.87;;;26.60;;
17422;SDS011;8829;47.932;7.810;2023-03-03T11:27:54;48.23;;;27.77;;
17422;SDS011;8829;47.932;7.810;2023-03-03T11:30:42;44.97;;;24.93;;
17422;SDS011;8829;47.932;7.810;2023-03-03T11:33:17;35.70;;;22.57;;
17422;SDS011;8829;47.932;7.810;2023-03-03T11:35:49;42.87;;;25.83;;
17422;SDS011;8829;47.932;7.810;2023-03-03T11:38:29;44.43;;;26.53;;
17422;SDS011;8829;47.932;7.810;2023-03-03T11:41:10;45.47;;;24.77;;
17422;SDS011;8829;47.932;7.810;2023-03-03T11:43:45;47.07;;;26.83;;
17422;SDS011;8829;47.932;7.810;2023-03-03T11:46:17;46.60;;;23.90;;
17422;SDS011;8829;47.932;7.810;2023-03-03T11:48:51;43.27;;;25.90;;
17422;SDS011;8829;47.932;7.810;2023-03-03T11:51:29;46.20;;;24.43;;
17422;SDS011;8829;47.932;7.810;2023-03-03T11:54:02;45.87;;;26.93;;
17422;SDS011;8829;47.932;7.810;2023-03-03T11:56:37;43.60;;;26.63;;
17422;SDS011;8829;47.932;7.810;2023-03-03T11:59:12;43.27;;;24.43;;
17422;SDS011;8829;47.932;7.810;2023-03-03T12:01:51;35.43;;;23.53;;
17422;SDS011;8829;47.932;7.810;2023-03-03T12:04:21;39.53;;;24.67;;
17422;SDS011;8829;47.932;7.810;2023-03-03T12:07:03;40.77;;;25.10;;
17422;SDS011;8829;47.932;7.810;2023-03-03T12:09:43;54.93;;;33.73;;
17422;SDS011;8829;47.932;7.810;2023-03-03T12:12:18;45.07;;;27.03;;
17422;SDS011;8829;47.932;7.810;2023-03-03T12:17:38;40.47;;;24.93;;
17422;SDS011;8829;47.932;7.810;2023-03-03T12:20:16;44.40;;;26.83;;
17422;SDS011;8829;47.932;7.810;2023-03-03T12:22:54;42.97;;;25.10;;
17422;SDS011;8829;47.932;7.810;2023-03-03T12:25:31;41.27;;;23.83;;
17422;SDS011;8829;47.932;7.810;2023-03-03T12:28:03;38.20;;;24.37;;
17422;SDS011;8829;47.932;7.810;2023-03-03T12:30:38;42.47;;;26.33;;
17422;SDS011;8829;47.932;7.810;2023-03-03T12:33:21;41.97;;;27.13;;
17422;SDS011;8829;47.932;7.810;2023-03-03T12:35:59;44.77;;;26.57;;
17422;SDS011;8829;47.932;7.810;2023-03-03T12:38:39;43.03;;;31.13;;
17422;SDS011;8829;47.932;7.810;2023-03-03T12:41:13;43.00;;;28.33;;
17422;SDS011;8829;47.932;7.810;2023-03-03T12:43:48;39.37;;;25.53;;
17422;SDS011;8829;47.932;7.810;2023-03-03T12:46:21;45.17;;;26.20;;
17422;SDS011;8829;47.932;7.810;2023-03-03T12:48:50;44.30;;;26.47;;
17422;SDS011;8829;47.932;7.810;2023-03-03T12:51:20;40.20;;;23.87;;
17422;SDS011;8829;47.932;7.810;2023-03-03T12:56:57;39.37;;;23.63;;
17422;SDS011;8829;47.932;7.810;2023-03-03T12:59:33;43.17;;;26.07;;
17422;SDS011;8829;47.932;7.810;2023-03-03T13:02:19;41.17;;;24.57;;
17422;SDS011;8829;47.932;7.810;2023-03-03T13:05:01;37.63;;;22.70;;
17422;SDS011;8829;47.932;7.810;2023-03-03T13:07:36;44.20;;;26.98;;
17422;SDS011;8829;47.932;7.810;2023-03-03T13:10:14;45.00;;;31.02;;
17422;SDS011;8829;47.932;7.810;2023-03-03T13:12:47;40.57;;;24.93;;
17422;SDS011;8829;47.932;7.810;2023-03-03T13:15:20;42.30;;;26.07;;
17422;SDS011;8829;47.932;7.810;2023-03-03T13:17:53;40.30;;;24.77;;
17422;SDS011;8829;47.932;7.810;2023-03-03T13:20:29;45.97;;;25.73;;
17422;SDS011;8829;47.932;7.810;2023-03-03T13:23:05;43.80;;;28.95;;
17422;SDS011;8829;47.932;7.810;2023-03-03T13:25:40;57.40;;;25.57;;
17422;SDS011;8829;47.932;7.810;2023-03-03T13:28:17;35.47;;;22.90;;
17422;SDS011;8829;47.932;7.810;2023-03-03T13:30:51;38.17;;;24.23;;
17422;SDS011;8829;47.932;7.810;2023-03-03T13:33:24;39.47;;;24.50;;
17422;SDS011;8829;47.932;7.810;2023-03-03T13:35:53;40.43;;;24.33;;
17422;SDS011;8829;47.932;7.810;2023-03-03T13:38:24;43.67;;;24.53;;
17422;SDS011;8829;47.932;7.810;2023-03-03T13:40:56;44.37;;;25.97;;
17422;SDS011;8829;47.932;7.810;2023-03-03T13:43:31;45.57;;;26.13;;
17422;SDS011;8829;47.932;7.810;2023-03-03T13:46:07;41.53;;;24.67;;
17422;SDS011;8829;47.932;7.810;2023-03-03T13:48:42;39.80;;;25.73;;
17422;SDS011;8829;47.932;7.810;2023-03-03T13:51:18;46.13;;;27.67;;
17422;SDS011;8829;47.932;7.810;2023-03-03T13:53:56;44.00;;;27.40;;
17422;SDS011;8829;47.932;7.810;2023-03-03T13:59:33;42.50;;;26.80;;
17422;SDS011;8829;47.932;7.810;2023-03-03T14:02:09;43.53;;;28.53;;
17422;SDS011;8829;47.932;7.810;2023-03-03T14:04:53;43.70;;;27.47;;
17422;SDS011;8829;47.932;7.810;2023-03-03T14:07:24;42.03;;;26.37;;
17422;SDS011;8829;47.932;7.810;2023-03-03T14:09:58;50.37;;;27.13;;
17422;SDS011;8829;47.932;7.810;2023-03-03T14:12:35;44.20;;;27.60;;
17422;SDS011;8829;47.932;7.810;2023-03-03T14:15:10;43.80;;;26.30;;
17422;SDS011;8829;47.932;7.810;2023-03-03T14:17:49;39.13;;;25.17;;
17422;SDS011;8829;47.932;7.810;2023-03-03T14:20:33;42.90;;;23.63;;
17422;SDS011;8829;47.932;7.810;2023-03-03T14:23:07;38.80;;;26.07;;
17422;SDS011;8829;47.932;7.810;2023-03-03T14:25:50;42.47;;;25.63;;
17422;SDS011;8829;47.932;7.810;2023-03-03T14:28:22;43.17;;;25.83;;
17422;SDS011;8829;47.932;7.810;2023-03-03T14:30:52;41.00;;;25.00;;
17422;SDS011;8829;47.932;7.810;2023-03-03T14:33:21;43.27;;;26.67;;
17422;SDS011;8829;47.932;7.810;2023-03-03T14:36:09;41.67;;;27.60;;
17422;SDS011;8829;47.932;7.810;2023-03-03T14:38:39;45.87;;;27.77;;
17422;SDS011;8829;47.932;7.810;2023-03-03T14:41:12;45.13;;;26.57;;
17422;SDS011;8829;47.932;7.810;2023-03-03T14:43:54;44.87;;;27.00;;
17422;SDS011;8829;47.932;7.810;2023-03-03T14:46:29;44.27;;;27.23;;
17422;SDS011;8829;47.932;7.810;2023-03-03T14:49:02;47.00;;;25.37;;
17422;SDS011;8829;47.932;7.810;2023-03-03T14:51:32;48.80;;;27.40;;
17422;SDS011;8829;47.932;7.810;2023-03-03T14:54:07;43.90;;;25.87;;
17422;SDS011;8829;47.932;7.810;2023-03-03T14:56:53;49.22;;;31.05;;
17422;SDS011;8829;47.932;7.810;2023-03-03T14:59:26;44.97;;;26.63;;
17422;SDS011;8829;47.932;7.810;2023-03-03T15:02:07;41.10;;;26.60;;
17422;SDS011;8829;47.932;7.810;2023-03-03T15:05:09;50.00;;;33.50;;
17422;SDS011;8829;47.932;7.810;2023-03-03T15:07:49;40.83;;;26.87;;
17422;SDS011;8829;47.932;7.810;2023-03-03T15:10:25;43.00;;;26.83;;
17422;SDS011;8829;47.932;7.810;2023-03-03T15:12:55;43.83;;;26.87;;
17422;SDS011;8829;47.932;7.810;2023-03-03T15:15:24;43.10;;;26.17;;
17422;SDS011;8829;47.932;7.810;2023-03-03T15:17:55;39.23;;;25.00;;
17422;SDS011;8829;47.932;7.810;2023-03-03T15:20:28;43.50;;;28.60;;